createdAt,value
2023-03-27T17:28:05.186Z,101225.47
2023-03-27T17:30:41.240Z,101251.63
2023-03-27T17:33:12.127Z,101264.16
2023-03-27T17:35:40.534Z,101260.44
2023-03-27T17:38:10.204Z,101258.41
2023-03-27T17:40:40.775Z,101267.19
2023-03-27T17:43:10.620Z,101272.13
2023-03-27T18:30:01.512Z,101317.41
2023-03-27T18:32:29.435Z,101330.69
2023-03-27T18:35:18.241Z,101333.19
2023-03-27T18:37:47.059Z,101333.97
2023-03-27T18:43:20.992Z,101342.22
2023-03-27T18:45:57.405Z,101347.53
2023-03-27T18:48:32.085Z,101356.03
2023-03-27T18:51:02.586Z,101353.00
2023-03-27T18:53:31.630Z,101357.66
2023-03-27T18:59:17.113Z,101363.91
2023-03-27T19:01:46.170Z,101359.78
2023-03-27T19:04:15.801Z,101364.31
2023-03-27T19:06:46.367Z,101368.97
2023-03-27T19:09:14.668Z,101369.75
2023-03-27T19:11:43.913Z,101376.56
2023-03-27T19:14:18.444Z,101378.56
2023-03-27T19:17:14.872Z,101375.63
2023-03-27T19:20:15.734Z,101383.19
2023-03-27T19:23:02.581Z,101373.28
2023-03-27T19:25:35.266Z,101379.41
2023-03-27T19:28:03.128Z,101386.31
2023-03-27T19:30:31.192Z,101392.16
2023-03-27T19:33:00.340Z,101388.84
2023-03-27T19:35:28.271Z,101387.09
2023-03-27T19:37:56.683Z,101389.88
2023-03-27T19:40:26.186Z,101391.53
2023-03-27T19:42:54.653Z,101393.25
2023-03-27T19:45:22.432Z,101392.06
2023-03-27T19:47:50.748Z,101399.53
2023-03-27T19:50:20.025Z,101395.50
2023-03-27T19:53:09.063Z,101394.56
2023-03-27T19:55:37.080Z,101396.75
2023-03-27T19:58:05.177Z,101392.38
2023-03-27T20:00:38.196Z,101398.75
2023-03-27T20:03:10.326Z,101400.94
2023-03-27T20:05:41.215Z,101404.16
2023-03-27T20:08:08.984Z,101402.31
2023-03-27T20:10:36.733Z,101402.31
2023-03-27T20:13:05.334Z,101402.66
2023-03-27T20:15:34.394Z,101404.03
2023-03-27T20:18:03.625Z,101401.69
2023-03-27T20:20:31.561Z,101411.84
2023-03-27T20:23:03.615Z,101421.41
2023-03-27T20:25:33.700Z,101423.38
2023-03-27T20:28:02.259Z,101417.13
2023-03-27T20:30:31.564Z,101425.72
2023-03-27T20:33:02.915Z,101428.66
2023-03-27T20:35:32.845Z,101421.06
2023-03-27T20:38:04.701Z,101425.72
2023-03-27T20:40:52.395Z,101429.63
2023-03-27T20:43:23.514Z,101426.97
2023-03-27T20:45:52.872Z,101429.50
2023-03-27T20:48:22.210Z,101429.16
2023-03-27T20:50:52.496Z,101434.31
2023-03-27T20:53:26.259Z,101433.94
2023-03-27T20:56:00.322Z,101436.13
2023-03-27T20:58:28.899Z,101434.53
2023-03-27T21:00:57.005Z,101431.84
2023-03-27T21:03:25.006Z,101428.16
2023-03-27T21:05:52.776Z,101431.09
2023-03-27T21:08:21.263Z,101429.84
2023-03-27T21:10:53.961Z,101425.59
2023-03-27T21:13:23.151Z,101430.59
2023-03-27T21:15:50.937Z,101436.63
2023-03-27T21:18:19.190Z,101434.66
2023-03-27T21:20:47.096Z,101426.19
2023-03-27T21:23:15.109Z,101432.31
2023-03-27T21:25:44.357Z,101428.28
2023-03-27T21:28:12.118Z,101420.69
2023-03-27T21:30:46.698Z,101434.81
2023-03-27T21:33:16.383Z,101430.50
2023-03-27T21:35:46.882Z,101423.75
2023-03-27T21:38:16.325Z,101421.31
2023-03-27T21:40:45.848Z,101426.97
2023-03-27T21:43:13.751Z,101438.34
2023-03-27T21:45:43.133Z,101444.81
2023-03-27T21:48:11.249Z,101446.69
2023-03-27T21:50:39.301Z,101442.63
2023-03-27T21:53:07.138Z,101437.72
2023-03-27T21:55:35.756Z,101441.53
2023-03-27T21:58:03.627Z,101440.69
2023-03-27T22:00:31.518Z,101447.91
2023-03-27T22:03:00.737Z,101439.69
2023-03-27T22:05:28.569Z,101448.50
2023-03-27T22:07:57.635Z,101454.38
2023-03-27T22:10:25.390Z,101458.06
2023-03-27T22:12:53.134Z,101464.91
2023-03-27T22:15:20.911Z,101460.53
2023-03-27T22:17:48.985Z,101457.56
2023-03-27T22:20:18.915Z,101465.88
2023-03-27T22:22:48.510Z,101462.44
2023-03-27T22:25:16.388Z,101464.66
2023-03-27T22:27:44.321Z,101460.97
2023-03-27T22:30:12.563Z,101473.09
2023-03-27T22:32:41.765Z,101459.41
2023-03-27T22:35:11.244Z,101470.78
2023-03-27T22:37:40.961Z,101473.22
2023-03-27T22:40:09.661Z,101476.53
2023-03-27T22:42:37.546Z,101471.97
2023-03-27T22:45:05.729Z,101480.28
2023-03-27T22:47:33.692Z,101477.94
2023-03-27T22:50:02.437Z,101478.06
2023-03-27T22:52:30.425Z,101488.25
2023-03-27T22:54:59.646Z,101491.81
2023-03-27T22:57:28.594Z,101491.59
2023-03-27T22:59:56.436Z,101495.88
2023-03-27T23:02:24.424Z,101497.22
2023-03-27T23:04:52.393Z,101508.03
2023-03-27T23:07:20.361Z,101511.19
2023-03-27T23:09:48.094Z,101520.22
2023-03-27T23:12:17.661Z,101509.22
2023-03-27T23:14:46.642Z,101513.38
2023-03-27T23:17:14.432Z,101518.03
2023-03-27T23:19:42.400Z,101516.06
2023-03-27T23:22:10.257Z,101513.63
2023-03-27T23:24:38.011Z,101513.84
2023-03-27T23:27:08.266Z,101523.19
2023-03-27T23:29:37.420Z,101515.22
2023-03-27T23:32:05.810Z,101519.59
2023-03-27T23:34:33.608Z,101531.38
2023-03-27T23:37:01.384Z,101530.28
2023-03-27T23:39:29.350Z,101537.09
2023-03-27T23:41:57.130Z,101542.09
2023-03-27T23:44:24.896Z,101535.69
2023-03-27T23:46:54.038Z,101539.94
2023-03-27T23:49:21.778Z,101540.91
2023-03-27T23:51:49.552Z,101543.16
2023-03-27T23:54:17.497Z,101549.28
2023-03-27T23:56:45.323Z,101555.91
2023-03-27T23:59:13.217Z,101548.16
